FYI419 LIBD-LIRF
Flight info
| Callsign | FYI419 |
|---|---|
| Flight time | 0h 49m |
| Altitude | 36000 |
| Route | TOPNO DCT DOGUS DCT EKTOL DCT AMSOR DCT TEA DCT SIPRO Z803 LAT |
| Aircraft | B38M/M-SDE1FGHILORVWXY/HB1 |
Departure
| Time | 2026-05-05 15:42 |
|---|---|
| Airport | Bari Karol Wojtyła International Airport (LIBD) |
Arrival
| Time | 2026-05-05 16:31 |
|---|---|
| Airport | Rome–Fiumicino Leonardo da Vinci International Airport (LIRF) |
| Time | Latitude | Longitude | Altitude | Speed | Heading |
|---|---|---|---|---|---|
| 2026-05-05 15:22 | 41.13530 | 16.76343 | 139 ft | 0 kts | 159° |
| 2026-05-05 15:32 | 41.13533 | 16.76341 | 139 ft | 2 kts | 159° |
| 2026-05-05 15:32 | 41.13551 | 16.76332 | 139 ft | 3 kts | 160° |
| 2026-05-05 15:33 | 41.13570 | 16.76324 | 139 ft | 3 kts | 168° |
| 2026-05-05 15:33 | 41.13589 | 16.76322 | 139 ft | 3 kts | 195° |
| 2026-05-05 15:33 | 41.13599 | 16.76330 | 139 ft | 1 kts | 246° |
| 2026-05-05 15:33 | 41.13600 | 16.76333 | 139 ft | 1 kts | 249° |
| 2026-05-05 15:37 | 41.13599 | 16.76329 | 139 ft | 2 kts | 249° |
| 2026-05-05 15:37 | 41.13587 | 16.76287 | 139 ft | 9 kts | 249° |
| 2026-05-05 15:37 | 41.13557 | 16.76181 | 139 ft | 14 kts | 252° |
| 2026-05-05 15:38 | 41.13601 | 16.76066 | 138 ft | 16 kts | 321° |
| 2026-05-05 15:38 | 41.13628 | 16.75931 | 139 ft | 17 kts | 250° |
| 2026-05-05 15:38 | 41.13585 | 16.75777 | 140 ft | 18 kts | 249° |
| 2026-05-05 15:38 | 41.13537 | 16.75608 | 140 ft | 21 kts | 250° |
| 2026-05-05 15:39 | 41.13488 | 16.75437 | 145 ft | 20 kts | 249° |
| 2026-05-05 15:39 | 41.13436 | 16.75255 | 145 ft | 22 kts | 249° |
| 2026-05-05 15:39 | 41.13384 | 16.75068 | 151 ft | 21 kts | 249° |
| 2026-05-05 15:39 | 41.13329 | 16.74876 | 150 ft | 23 kts | 250° |
| 2026-05-05 15:40 | 41.13271 | 16.74672 | 155 ft | 23 kts | 249° |
| 2026-05-05 15:40 | 41.13212 | 16.74464 | 156 ft | 25 kts | 249° |
| 2026-05-05 15:40 | 41.13164 | 16.74286 | 155 ft | 15 kts | 262° |
| 2026-05-05 15:40 | 41.13213 | 16.74142 | 149 ft | 20 kts | 302° |
| 2026-05-05 15:41 | 41.13314 | 16.74154 | 149 ft | 15 kts | 69° |
| 2026-05-05 15:41 | 41.13320 | 16.74172 | 149 ft | 0 kts | 69° |
| 2026-05-05 15:41 | 41.13323 | 16.74182 | 149 ft | 12 kts | 70° |
| 2026-05-05 15:41 | 41.13444 | 16.74615 | 147 ft | 87 kts | 69° |
| 2026-05-05 15:42 | 41.13732 | 16.75633 | 143 ft | 146 kts | 69° |
| 2026-05-05 15:42 | 41.14142 | 16.77069 | 360 ft | 175 kts | 71° |
| 2026-05-05 15:42 | 41.14572 | 16.78650 | 1045 ft | 180 kts | 73° |
| 2026-05-05 15:42 | 41.15010 | 16.80195 | 1859 ft | 184 kts | 72° |
| 2026-05-05 15:43 | 41.15481 | 16.81873 | 2401 ft | 204 kts | 70° |
| 2026-05-05 15:43 | 41.16012 | 16.83755 | 2886 ft | 231 kts | 71° |
| 2026-05-05 15:43 | 41.16604 | 16.85844 | 3486 ft | 252 kts | 70° |
| 2026-05-05 15:43 | 41.17243 | 16.88096 | 4220 ft | 264 kts | 70° |
| 2026-05-05 15:44 | 41.18059 | 16.90283 | 5038 ft | 276 kts | 51° |
| 2026-05-05 15:44 | 41.19587 | 16.91820 | 5867 ft | 277 kts | 19° |
| 2026-05-05 15:44 | 41.21469 | 16.92202 | 6827 ft | 275 kts | 352° |
| 2026-05-05 15:44 | 41.23330 | 16.91654 | 7715 ft | 276 kts | 342° |
| 2026-05-05 15:45 | 41.25200 | 16.91000 | 8628 ft | 279 kts | 342° |
| 2026-05-05 15:45 | 41.27071 | 16.90285 | 9561 ft | 280 kts | 334° |
| 2026-05-05 15:45 | 41.28651 | 16.88866 | 10400 ft | 278 kts | 310° |
| 2026-05-05 15:45 | 41.29675 | 16.86627 | 10859 ft | 293 kts | 287° |
| 2026-05-05 15:46 | 41.29914 | 16.83869 | 11215 ft | 312 kts | 264° |
| 2026-05-05 15:46 | 41.29374 | 16.81000 | 11670 ft | 328 kts | 250° |
| 2026-05-05 15:46 | 41.28709 | 16.79167 | 12045 ft | 337 kts | 240° |
| 2026-05-05 15:46 | 41.27410 | 16.76562 | 12872 ft | 339 kts | 239° |
| 2026-05-05 15:47 | 41.26117 | 16.73931 | 13629 ft | 344 kts | 239° |
| 2026-05-05 15:47 | 41.24808 | 16.71252 | 14366 ft | 347 kts | 239° |
| 2026-05-05 15:47 | 41.23490 | 16.68545 | 15039 ft | 352 kts | 239° |
| 2026-05-05 15:47 | 41.22154 | 16.65797 | 15721 ft | 356 kts | 239° |
| 2026-05-05 15:48 | 41.20808 | 16.63029 | 16378 ft | 360 kts | 239° |
| 2026-05-05 15:48 | 41.19452 | 16.60243 | 17039 ft | 364 kts | 239° |
| 2026-05-05 15:48 | 41.18067 | 16.57401 | 17668 ft | 368 kts | 239° |
| 2026-05-05 15:48 | 41.16667 | 16.54528 | 18312 ft | 372 kts | 239° |
| 2026-05-05 15:49 | 41.15255 | 16.51634 | 18875 ft | 375 kts | 239° |
| 2026-05-05 15:49 | 41.13833 | 16.48722 | 19473 ft | 376 kts | 239° |
| 2026-05-05 15:49 | 41.12405 | 16.45802 | 20067 ft | 378 kts | 239° |
| 2026-05-05 15:49 | 41.10979 | 16.42889 | 20647 ft | 380 kts | 240° |
| 2026-05-05 15:50 | 41.09537 | 16.39946 | 21239 ft | 382 kts | 240° |
| 2026-05-05 15:50 | 41.08087 | 16.36990 | 21827 ft | 383 kts | 240° |
| 2026-05-05 15:50 | 41.06648 | 16.34060 | 22402 ft | 385 kts | 240° |
| 2026-05-05 15:50 | 41.05188 | 16.31090 | 23073 ft | 384 kts | 240° |
| 2026-05-05 15:51 | 41.03726 | 16.28117 | 23664 ft | 386 kts | 240° |
| 2026-05-05 15:51 | 41.02254 | 16.25129 | 24132 ft | 388 kts | 240° |
| 2026-05-05 15:51 | 41.00774 | 16.22126 | 24597 ft | 391 kts | 240° |
| 2026-05-05 15:51 | 40.99280 | 16.19099 | 25043 ft | 394 kts | 240° |
| 2026-05-05 15:52 | 40.97780 | 16.16062 | 25512 ft | 396 kts | 240° |
| 2026-05-05 15:52 | 40.96504 | 16.12847 | 25936 ft | 395 kts | 253° |
| 2026-05-05 15:52 | 40.96005 | 16.09284 | 26361 ft | 396 kts | 269° |
| 2026-05-05 15:52 | 40.96268 | 16.05650 | 26787 ft | 399 kts | 279° |
| 2026-05-05 15:53 | 40.96776 | 16.02020 | 27191 ft | 403 kts | 279° |
| 2026-05-05 15:53 | 40.97335 | 15.98377 | 27603 ft | 405 kts | 280° |
| 2026-05-05 15:53 | 40.97922 | 15.94730 | 27971 ft | 409 kts | 281° |
| 2026-05-05 15:53 | 40.98530 | 15.91040 | 28387 ft | 411 kts | 281° |
| 2026-05-05 15:54 | 40.99147 | 15.87352 | 28685 ft | 409 kts | 281° |
| 2026-05-05 15:54 | 41.00393 | 15.79929 | 29186 ft | 415 kts | 281° |
| 2026-05-05 15:54 | 41.01022 | 15.76182 | 29564 ft | 418 kts | 281° |
| 2026-05-05 15:55 | 41.01653 | 15.72414 | 29942 ft | 421 kts | 281° |
| 2026-05-05 15:55 | 41.02288 | 15.68621 | 30298 ft | 422 kts | 281° |
| 2026-05-05 15:55 | 41.02923 | 15.64824 | 30728 ft | 421 kts | 281° |
| 2026-05-05 15:55 | 41.03547 | 15.61077 | 31276 ft | 417 kts | 281° |
| 2026-05-05 15:56 | 41.04169 | 15.57344 | 31841 ft | 414 kts | 281° |
| 2026-05-05 15:56 | 41.04786 | 15.53629 | 32052 ft | 414 kts | 281° |
| 2026-05-05 15:56 | 41.05401 | 15.49918 | 32078 ft | 410 kts | 281° |
| 2026-05-05 15:57 | 41.06620 | 15.42543 | 32077 ft | 409 kts | 281° |
| 2026-05-05 15:57 | 41.07831 | 15.35180 | 32076 ft | 409 kts | 281° |
| 2026-05-05 15:58 | 41.09039 | 15.27806 | 32085 ft | 409 kts | 281° |
| 2026-05-05 15:58 | 41.10243 | 15.20432 | 32087 ft | 409 kts | 281° |
| 2026-05-05 15:59 | 41.11454 | 15.13057 | 32084 ft | 409 kts | 281° |
| 2026-05-05 15:59 | 41.12666 | 15.05674 | 32083 ft | 410 kts | 281° |
| 2026-05-05 16:00 | 41.13871 | 14.98303 | 32078 ft | 410 kts | 281° |
| 2026-05-05 16:00 | 41.15074 | 14.90914 | 32086 ft | 410 kts | 281° |
| 2026-05-05 16:01 | 41.16259 | 14.83526 | 32081 ft | 411 kts | 281° |
| 2026-05-05 16:01 | 41.17437 | 14.76109 | 32083 ft | 411 kts | 281° |
| 2026-05-05 16:02 | 41.18611 | 14.68687 | 32076 ft | 411 kts | 281° |
| 2026-05-05 16:02 | 41.19772 | 14.61320 | 32087 ft | 411 kts | 281° |
| 2026-05-05 16:03 | 41.20937 | 14.53895 | 32078 ft | 411 kts | 281° |
| 2026-05-05 16:03 | 41.22093 | 14.46490 | 32079 ft | 411 kts | 281° |
| 2026-05-05 16:04 | 41.23248 | 14.39058 | 32080 ft | 410 kts | 281° |
| 2026-05-05 16:04 | 41.24398 | 14.31629 | 32084 ft | 411 kts | 281° |
| 2026-05-05 16:05 | 41.25543 | 14.24195 | 32091 ft | 410 kts | 280° |
| 2026-05-05 16:05 | 41.26683 | 14.16765 | 32090 ft | 413 kts | 281° |
| 2026-05-05 16:06 | 41.27828 | 14.09262 | 32089 ft | 414 kts | 281° |
| 2026-05-05 16:06 | 41.28969 | 14.01764 | 31892 ft | 412 kts | 281° |
| 2026-05-05 16:06 | 41.29654 | 13.98078 | 31133 ft | 412 kts | 290° |
| 2026-05-05 16:07 | 41.31029 | 13.94761 | 30624 ft | 409 kts | 301° |
| 2026-05-05 16:07 | 41.32575 | 13.91634 | 30229 ft | 401 kts | 300° |
| 2026-05-05 16:07 | 41.34127 | 13.88529 | 29687 ft | 413 kts | 301° |
| 2026-05-05 16:07 | 41.35750 | 13.85324 | 28872 ft | 420 kts | 302° |
| 2026-05-05 16:08 | 41.37407 | 13.82082 | 28245 ft | 426 kts | 302° |
| 2026-05-05 16:08 | 41.39081 | 13.78820 | 27592 ft | 428 kts | 302° |
| 2026-05-05 16:08 | 41.40761 | 13.75548 | 26924 ft | 427 kts | 302° |
| 2026-05-05 16:08 | 41.42435 | 13.72284 | 26274 ft | 426 kts | 302° |
| 2026-05-05 16:09 | 41.43967 | 13.69003 | 25553 ft | 421 kts | 293° |
| 2026-05-05 16:09 | 41.44826 | 13.65232 | 24833 ft | 418 kts | 280° |
| 2026-05-05 16:09 | 41.45370 | 13.61449 | 24290 ft | 414 kts | 280° |
| 2026-05-05 16:09 | 41.45889 | 13.57702 | 23692 ft | 412 kts | 280° |
| 2026-05-05 16:10 | 41.46388 | 13.53944 | 22975 ft | 410 kts | 279° |
| 2026-05-05 16:10 | 41.46871 | 13.50207 | 22352 ft | 407 kts | 279° |
| 2026-05-05 16:10 | 41.47336 | 13.46553 | 21761 ft | 403 kts | 279° |
| 2026-05-05 16:10 | 41.47799 | 13.42889 | 21172 ft | 400 kts | 278° |
| 2026-05-05 16:11 | 41.48264 | 13.39189 | 20593 ft | 397 kts | 278° |
| 2026-05-05 16:11 | 41.49610 | 13.28429 | 18919 ft | 391 kts | 278° |
| 2026-05-05 16:12 | 41.50054 | 13.24861 | 18358 ft | 389 kts | 278° |
| 2026-05-05 16:12 | 41.50927 | 13.17816 | 17473 ft | 376 kts | 278° |
| 2026-05-05 16:13 | 41.52146 | 13.07914 | 16800 ft | 345 kts | 278° |
| 2026-05-05 16:13 | 41.52529 | 13.04793 | 16618 ft | 336 kts | 278° |
| 2026-05-05 16:13 | 41.52899 | 13.01770 | 16485 ft | 326 kts | 278° |
| 2026-05-05 16:14 | 41.53605 | 12.95985 | 16187 ft | 307 kts | 277° |
| 2026-05-05 16:14 | 41.55113 | 12.90840 | 15716 ft | 302 kts | 309° |
| 2026-05-05 16:15 | 41.58135 | 12.86880 | 15232 ft | 305 kts | 313° |
| 2026-05-05 16:15 | 41.61196 | 12.82994 | 14700 ft | 302 kts | 313° |
| 2026-05-05 16:16 | 41.64239 | 12.79173 | 14182 ft | 300 kts | 313° |
| 2026-05-05 16:16 | 41.67272 | 12.75374 | 13607 ft | 297 kts | 313° |
| 2026-05-05 16:17 | 41.70274 | 12.71611 | 13008 ft | 294 kts | 313° |
| 2026-05-05 16:17 | 41.71768 | 12.69738 | 12758 ft | 296 kts | 313° |
| 2026-05-05 16:18 | 41.74737 | 12.66010 | 12201 ft | 295 kts | 313° |
| 2026-05-05 16:18 | 41.76253 | 12.64104 | 11630 ft | 302 kts | 314° |
| 2026-05-05 16:18 | 41.79366 | 12.60187 | 10661 ft | 309 kts | 314° |
| 2026-05-05 16:19 | 41.80922 | 12.58175 | 10122 ft | 314 kts | 312° |
| 2026-05-05 16:19 | 41.82462 | 12.56092 | 9478 ft | 317 kts | 312° |
| 2026-05-05 16:19 | 41.85486 | 12.52023 | 8652 ft | 296 kts | 312° |
| 2026-05-05 16:20 | 41.88271 | 12.48278 | 8193 ft | 270 kts | 312° |
| 2026-05-05 16:20 | 41.91268 | 12.45617 | 7753 ft | 264 kts | 340° |
| 2026-05-05 16:21 | 41.94758 | 12.44140 | 7192 ft | 261 kts | 340° |
| 2026-05-05 16:22 | 41.99961 | 12.41965 | 6298 ft | 265 kts | 340° |
| 2026-05-05 16:22 | 42.03448 | 12.40514 | 5632 ft | 254 kts | 340° |
| 2026-05-05 16:23 | 42.06554 | 12.38715 | 4834 ft | 239 kts | 309° |
| 2026-05-05 16:23 | 42.07316 | 12.36875 | 4532 ft | 221 kts | 276° |
| 2026-05-05 16:23 | 42.06971 | 12.32980 | 4437 ft | 213 kts | 255° |
| 2026-05-05 16:24 | 42.06616 | 12.30977 | 4110 ft | 225 kts | 253° |
| 2026-05-05 16:24 | 42.06260 | 12.28929 | 3771 ft | 228 kts | 253° |
| 2026-05-05 16:24 | 42.05610 | 12.24923 | 3397 ft | 214 kts | 254° |
| 2026-05-05 16:25 | 42.05315 | 12.23030 | 3282 ft | 206 kts | 253° |
| 2026-05-05 16:25 | 42.03905 | 12.20098 | 3059 ft | 187 kts | 205° |
| 2026-05-05 16:25 | 42.02785 | 12.19399 | 3078 ft | 169 kts | 200° |
| 2026-05-05 16:26 | 42.00578 | 12.19446 | 2962 ft | 162 kts | 166° |
| 2026-05-05 16:26 | 41.98471 | 12.20337 | 2829 ft | 153 kts | 166° |
| 2026-05-05 16:27 | 41.97509 | 12.20744 | 2666 ft | 139 kts | 165° |
| 2026-05-05 16:27 | 41.96596 | 12.21126 | 2515 ft | 137 kts | 165° |
| 2026-05-05 16:27 | 41.95698 | 12.21508 | 2341 ft | 135 kts | 165° |
| 2026-05-05 16:27 | 41.94809 | 12.21884 | 2172 ft | 133 kts | 165° |
| 2026-05-05 16:28 | 41.93935 | 12.22244 | 1986 ft | 130 kts | 163° |
| 2026-05-05 16:28 | 41.93082 | 12.22604 | 1827 ft | 127 kts | 162° |
| 2026-05-05 16:28 | 41.92238 | 12.22959 | 1668 ft | 127 kts | 163° |
| 2026-05-05 16:28 | 41.91392 | 12.23308 | 1476 ft | 128 kts | 163° |
| 2026-05-05 16:29 | 41.90545 | 12.23659 | 1298 ft | 127 kts | 161° |
| 2026-05-05 16:29 | 41.89700 | 12.24017 | 1127 ft | 127 kts | 161° |
| 2026-05-05 16:29 | 41.88851 | 12.24392 | 953 ft | 130 kts | 163° |
| 2026-05-05 16:29 | 41.87985 | 12.24743 | 788 ft | 131 kts | 161° |
| 2026-05-05 16:30 | 41.87110 | 12.25105 | 586 ft | 133 kts | 163° |
| 2026-05-05 16:30 | 41.86211 | 12.25487 | 402 ft | 136 kts | 165° |
| 2026-05-05 16:30 | 41.85315 | 12.25862 | 212 ft | 133 kts | 163° |
| 2026-05-05 16:30 | 41.84424 | 12.26224 | 46 ft | 134 kts | 163° |
| 2026-05-05 16:31 | 41.83613 | 12.26561 | 19 ft | 104 kts | 162° |
| 2026-05-05 16:31 | 41.83121 | 12.26766 | 15 ft | 50 kts | 162° |
| 2026-05-05 16:31 | 41.82835 | 12.26866 | 16 ft | 40 kts | 172° |
| 2026-05-05 16:31 | 41.82591 | 12.26834 | 13 ft | 35 kts | 193° |
| 2026-05-05 16:32 | 41.82352 | 12.26781 | 13 ft | 22 kts | 177° |
| 2026-05-05 16:32 | 41.82198 | 12.26831 | 13 ft | 24 kts | 162° |
| 2026-05-05 16:32 | 41.82036 | 12.26898 | 13 ft | 25 kts | 162° |
| 2026-05-05 16:32 | 41.81863 | 12.26971 | 14 ft | 27 kts | 162° |
| 2026-05-05 16:33 | 41.81686 | 12.27046 | 15 ft | 28 kts | 162° |
| 2026-05-05 16:33 | 41.81497 | 12.27125 | 14 ft | 29 kts | 162° |
| 2026-05-05 16:33 | 41.81299 | 12.27207 | 14 ft | 30 kts | 162° |
| 2026-05-05 16:33 | 41.81093 | 12.27294 | 15 ft | 32 kts | 162° |
| 2026-05-05 16:34 | 41.80923 | 12.27351 | 15 ft | 25 kts | 180° |
| 2026-05-05 16:34 | 41.80748 | 12.27314 | 15 ft | 26 kts | 189° |
| 2026-05-05 16:34 | 41.80635 | 12.27145 | 15 ft | 24 kts | 253° |
| 2026-05-05 16:34 | 41.80575 | 12.26932 | 15 ft | 25 kts | 250° |
| 2026-05-05 16:35 | 41.80513 | 12.26704 | 19 ft | 27 kts | 249° |
| 2026-05-05 16:35 | 41.80463 | 12.26526 | 18 ft | 15 kts | 250° |
| 2026-05-05 16:35 | 41.80426 | 12.26400 | 18 ft | 12 kts | 236° |
| 2026-05-05 16:35 | 41.80342 | 12.26373 | 18 ft | 15 kts | 161° |
| 2026-05-05 16:36 | 41.80298 | 12.26379 | 16 ft | 6 kts | 205° |
| 2026-05-05 16:36 | 41.80287 | 12.26359 | 18 ft | 1 kts | 268° |
| 2026-05-05 16:36 | 41.80290 | 12.26344 | 16 ft | 3 kts | 285° |
| 2026-05-05 16:36 | 41.80295 | 12.26312 | 16 ft | 4 kts | 258° |
| 2026-05-05 16:37 | 41.80269 | 12.26282 | 16 ft | 5 kts | 206° |
| 2026-05-05 16:37 | 41.80257 | 12.26275 | 16 ft | 1 kts | 205° |